METAR rapporten vliegvelden

   
EHVK - Volkel Rnlafb, Netherlands
Afstand tot: ZW 18 km
Gewijzigd: 03-07-2020 17:55
Grotendeels bewolkt  
Grotendeels bewolkt  
   Wind: ZW 20.4 km/h
Wind: ZW 20.4 km/h
Temperatuur: 21°C
Dauwpunt: 13°C
Vochtigheid: 60%
Barometer: 1016 hPa
Bewolking: Grotendeels bewolkt
Zicht: meer dan 10 km
Bewolking: Grotendeels bewolkt 3500 ft,
Grotendeels bewolkt 4100 ft,
Grotendeels bewolkt 6100 ft
EHVK 031555Z AUTO 23011KT 210V280 9999 BKN035 BKN041 BKN061 21/13 Q1016 BLU
EDLV - Niederrhein, Germany
Afstand tot: ZO 25 km
Gewijzigd: 03-07-2020 17:50
Helder  
Helder  
   Wind: WZW 27.8 km/h
Wind: WZW 27.8 km/h
Temperatuur: 23°C
Dauwpunt: 12°C
Vochtigheid: 50%
Barometer: 1016 hPa
Zicht: meer dan 10 km
Bewolking: Helder
EDLV 031550Z 24015KT 210V270 CAVOK 23/12 Q1016
EHDL - Deelen Rnlafb, Netherlands
Afstand tot: N 35 km
Gewijzigd: 03-07-2020 17:55
Bewolking  
Bewolking  
   Wind: WZW 22.2 km/h
Wind: WZW 22.2 km/h
Temperatuur: 22°C
Dauwpunt: 12°C
Vochtigheid: 53%
Barometer: 1015 hPa
Bewolking: Bewolking
Zicht: meer dan 10 km
Bewolking: Grotendeels bewolkt 4100 ft,
Bewolking 15000 ft
EHDL 031555Z AUTO 25012KT 170V300 9999 BKN041 OVC150 22/12 Q1015 BLU
EHEH - Eindhoven Rnlafb, Netherlands
Afstand tot: ZW 48 km
Gewijzigd: 03-07-2020 17:55
Grotendeels bewolkt  
Grotendeels bewolkt  
   Wind: WZW 25.9 km/h
Wind: WZW 25.9 km/h
Temperatuur: 22°C
Dauwpunt: 12°C
Vochtigheid: 53%
Barometer: 1016 hPa
Bewolking: Grotendeels bewolkt
Zicht: meer dan 10 km
Bewolking: Gedeeltelijk bewolkt 4200 ft,
Gedeeltelijk bewolkt 4800 ft,
Grotendeels bewolkt 30000 ft
EHEH 031555Z AUTO 24014KT 200V280 9999 SCT042 SCT048 BKN300 22/12 Q1016 BLU 23012KT 9999 SCT040 TEMPO 23012G22KT
EHGR - Gilze-Rijen Rnla, Netherlands
Afstand tot: WZW 70 km
Gewijzigd: 03-07-2020 17:55
Bewolking  
Bewolking  
   Wind: WZW 22.2 km/h
Wind: WZW 22.2 km/h
Temperatuur: 22°C
Dauwpunt: 11°C
Vochtigheid: 50%
Barometer: 1016 hPa
Bewolking: Bewolking
Zicht: meer dan 10 km
Bewolking: Gedeeltelijk bewolkt 4500 ft,
Bewolking 25000 ft
EHGR 031555Z AUTO 25012KT 220V280 9999 SCT045 OVC250 22/11 Q1016 BLU
EBBL - Kleine-Brogel(Ba, Belgium
Afstand tot: ZZW 71 km
Gewijzigd: 03-07-2020 17:55
Gedeeltelijk bewolkt  
Gedeeltelijk bewolkt  
   Wind: ZW 25.9 km/h
Wind: ZW 25.9 km/h
Temperatuur: 21°C
Dauwpunt: 12°C
Vochtigheid: 57%
Barometer: 1017 hPa
Bewolking: Gedeeltelijk bewolkt
Zicht: meer dan 10 km
Bewolking: Licht bewolkt 3900 ft,
Gedeeltelijk bewolkt 6000 ft
EBBL 031555Z AUTO 23014KT 9999 FEW039/// SCT060/// 21/12 Q1017 BLU

Script ontwikkeld door  Saratoga-weather.org Aangepast voor de template door  Weerstation Leuven

U vindt ons ook hier:

Het Weer Aktueel

European Weather Network

WeatherCloud

Weather Underground

Benelux Weer Netwerk

Apparatuur in gebruik:

Weerstation
Davis VP2

Weerprogramma
consoleWD

Weercomputer
Raspberry

Webleverancier
Stef van Bakel koeltechniek

Davis VP2

consoleWD

Raspberry

Stef van Bakel koeltechniek